createdAt,value
2023-05-06T00:01:20.779Z,100.00
2023-05-06T00:03:25.019Z,100.00
2023-05-06T00:05:27.880Z,100.00
2023-05-06T00:07:30.557Z,100.00
2023-05-06T00:09:33.370Z,100.00
2023-05-06T00:11:36.100Z,100.00
2023-05-06T00:13:38.743Z,100.00
2023-05-06T00:15:41.557Z,100.00
2023-05-06T00:17:44.648Z,100.00
2023-05-06T00:19:49.560Z,100.00
2023-05-06T00:21:52.663Z,100.00
2023-05-06T00:23:55.794Z,100.00
2023-05-06T00:25:58.600Z,100.00
2023-05-06T00:28:01.336Z,100.00
2023-05-06T00:30:04.354Z,100.00
2023-05-06T00:32:07.182Z,100.00
2023-05-06T00:34:10.845Z,100.00
2023-05-06T00:36:14.929Z,100.00
2023-05-06T00:38:17.840Z,100.00
2023-05-06T00:40:20.475Z,100.00
2023-05-06T00:42:23.512Z,100.00
2023-05-06T00:44:26.310Z,100.00
2023-05-06T00:46:29.305Z,100.00
2023-05-06T00:48:32.091Z,100.00
2023-05-06T00:50:36.033Z,100.00
2023-05-06T00:52:40.104Z,100.00
2023-05-06T00:54:42.965Z,100.00
2023-05-06T00:56:45.761Z,100.00
2023-05-06T00:58:49.496Z,100.00
2023-05-06T01:00:52.497Z,100.00
2023-05-06T01:02:55.294Z,100.00
2023-05-06T01:04:58.542Z,100.00
2023-05-06T01:07:08.887Z,100.00
2023-05-06T01:09:20.837Z,100.00
2023-05-06T01:11:30.858Z,100.00
2023-05-06T01:13:43.727Z,100.00
2023-05-06T01:15:48.055Z,100.00
2023-05-06T01:17:54.469Z,100.00
2023-05-06T01:20:01.703Z,100.00
2023-05-06T01:22:06.781Z,100.00
2023-05-06T01:24:10.841Z,100.00
2023-05-06T01:26:13.486Z,100.00
2023-05-06T01:28:16.113Z,100.00
2023-05-06T01:30:20.648Z,100.00
2023-05-06T01:32:43.957Z,100.00
2023-05-06T01:34:54.869Z,100.00
2023-05-06T01:37:09.085Z,100.00
2023-05-06T01:39:18.065Z,100.00
2023-05-06T01:41:21.964Z,100.00
2023-05-06T01:43:29.235Z,100.00
2023-05-06T01:45:34.834Z,100.00
2023-05-06T01:47:38.552Z,100.00
2023-05-06T01:49:41.491Z,100.00
2023-05-06T01:51:48.795Z,100.00
2023-05-06T01:53:51.530Z,100.00
2023-05-06T01:55:55.632Z,100.00
2023-05-06T01:57:58.292Z,100.00
2023-05-06T02:00:00.995Z,100.00
2023-05-06T02:02:03.833Z,100.00
2023-05-06T02:04:07.348Z,100.00
2023-05-06T02:06:09.258Z,100.00
2023-05-06T02:08:11.929Z,100.00
2023-05-06T02:10:14.615Z,100.00
2023-05-06T02:12:18.727Z,100.00
2023-05-06T02:14:21.399Z,100.00
2023-05-06T02:16:24.208Z,100.00
2023-05-06T02:18:26.934Z,100.00
2023-05-06T02:20:29.742Z,100.00
2023-05-06T02:22:32.513Z,100.00
2023-05-06T02:24:35.240Z,100.00
2023-05-06T02:26:38.008Z,100.00
2023-05-06T02:28:42.325Z,100.00
2023-05-06T02:30:45.494Z,100.00
2023-05-06T02:32:48.280Z,100.00
2023-05-06T02:34:51.672Z,100.00
2023-05-06T02:36:54.434Z,100.00
2023-05-06T02:38:57.159Z,100.00
2023-05-06T02:40:59.948Z,100.00
2023-05-06T02:43:02.828Z,100.00
2023-05-06T02:45:08.746Z,100.00
2023-05-06T02:47:11.661Z,100.00
2023-05-06T02:49:14.316Z,100.00
2023-05-06T02:51:17.191Z,100.00
2023-05-06T02:53:19.887Z,100.00
2023-05-06T02:55:22.618Z,100.00
2023-05-06T02:57:25.640Z,100.00
2023-05-06T02:59:28.270Z,100.00
2023-05-06T03:01:32.370Z,100.00
2023-05-06T03:03:35.136Z,100.00
2023-05-06T03:05:37.842Z,100.00
2023-05-06T03:07:40.777Z,100.00
2023-05-06T03:09:43.500Z,100.00
2023-05-06T03:11:46.260Z,100.00
2023-05-06T03:13:49.042Z,100.00
2023-05-06T03:15:53.783Z,100.00
2023-05-06T03:17:57.974Z,100.00
2023-05-06T03:20:00.916Z,100.00
2023-05-06T03:22:03.653Z,100.00
2023-05-06T03:24:07.199Z,100.00
2023-05-06T03:26:10.053Z,100.00
2023-05-06T03:28:13.040Z,100.00
2023-05-06T03:30:15.955Z,100.00
2023-05-06T03:32:19.177Z,100.00
2023-05-06T03:34:23.195Z,100.00
2023-05-06T03:36:27.931Z,100.00
2023-05-06T03:38:30.742Z,100.00
2023-05-06T03:40:33.746Z,100.00
2023-05-06T03:42:36.515Z,100.00
2023-05-06T03:44:39.219Z,100.00
2023-05-06T03:46:42.206Z,100.00
2023-05-06T03:48:44.957Z,100.00
2023-05-06T03:50:49.128Z,100.00
2023-05-06T03:52:52.351Z,100.00
2023-05-06T03:54:55.061Z,100.00
2023-05-06T03:56:57.848Z,100.00
2023-05-06T03:59:00.893Z,100.00
2023-05-06T04:01:04.305Z,100.00
2023-05-06T04:03:07.120Z,100.00
2023-05-06T04:05:10.308Z,100.00
2023-05-06T04:07:14.562Z,100.00
2023-05-06T04:09:17.319Z,100.00
2023-05-06T04:11:20.028Z,100.00
2023-05-06T04:13:22.886Z,100.00
2023-05-06T04:15:25.721Z,100.00
2023-05-06T04:17:28.432Z,100.00
2023-05-06T04:19:32.098Z,100.00
2023-05-06T04:21:34.796Z,100.00
2023-05-06T04:23:39.070Z,100.00
2023-05-06T04:25:42.608Z,100.00
2023-05-06T04:27:45.400Z,100.00
2023-05-06T04:29:48.271Z,100.00
2023-05-06T04:31:51.536Z,100.00
2023-05-06T04:33:54.792Z,100.00
2023-05-06T04:35:57.540Z,100.00
2023-05-06T04:38:00.309Z,100.00
2023-05-06T04:40:06.273Z,100.00
2023-05-06T04:42:09.127Z,100.00
2023-05-06T04:44:11.817Z,100.00
2023-05-06T04:46:14.567Z,100.00
2023-05-06T04:48:18.859Z,100.00
2023-05-06T04:50:24.361Z,100.00
2023-05-06T04:52:33.054Z,100.00
2023-05-06T04:54:35.746Z,100.00
2023-05-06T04:56:39.780Z,100.00
2023-05-06T04:58:42.680Z,100.00
2023-05-06T05:00:45.393Z,100.00
2023-05-06T05:02:48.332Z,100.00
2023-05-06T05:04:51.156Z,100.00
2023-05-06T05:06:53.803Z,100.00
2023-05-06T05:08:57.093Z,100.00
2023-05-06T05:10:59.781Z,100.00
2023-05-06T05:13:03.976Z,100.00
2023-05-06T05:15:07.915Z,100.00
2023-05-06T05:17:10.947Z,100.00
2023-05-06T05:19:13.707Z,100.00
2023-05-06T05:21:16.875Z,100.00
2023-05-06T05:23:19.613Z,100.00
2023-05-06T05:25:22.300Z,100.00
2023-05-06T05:27:25.026Z,100.00
2023-05-06T05:29:29.058Z,100.00
2023-05-06T05:31:32.081Z,100.00
2023-05-06T05:33:34.817Z,100.00
2023-05-06T05:35:37.589Z,100.00
2023-05-06T05:37:40.337Z,100.00
2023-05-06T05:39:42.977Z,100.00
2023-05-06T05:41:45.743Z,100.00
2023-05-06T05:43:48.498Z,100.00
2023-05-06T05:45:52.564Z,100.00
2023-05-06T05:47:55.402Z,100.00
2023-05-06T05:49:58.070Z,100.00
2023-05-06T05:52:00.795Z,100.00
2023-05-06T05:54:03.493Z,100.00
2023-05-06T05:56:07.003Z,100.00
2023-05-06T05:58:11.585Z,100.00
2023-05-06T06:00:15.105Z,100.00
2023-05-06T06:02:19.144Z,100.00
2023-05-06T06:04:22.083Z,100.00
2023-05-06T06:06:25.285Z,100.00
2023-05-06T06:08:29.688Z,100.00
2023-05-06T06:10:32.372Z,100.00
2023-05-06T06:12:35.101Z,100.00
2023-05-06T06:14:37.844Z,100.00
2023-05-06T06:16:40.593Z,100.00
2023-05-06T06:18:44.742Z,100.00
2023-05-06T06:20:47.433Z,100.00
2023-05-06T06:22:50.171Z,100.00
2023-05-06T06:24:53.725Z,100.00
2023-05-06T06:26:56.474Z,100.00
2023-05-06T06:28:59.147Z,100.00
2023-05-06T06:31:02.077Z,100.00
2023-05-06T06:33:05.025Z,100.00
2023-05-06T06:35:09.567Z,100.00
2023-05-06T06:37:13.119Z,100.00
2023-05-06T06:39:15.858Z,100.00
2023-05-06T06:41:18.627Z,100.00
2023-05-06T06:43:21.431Z,100.00
2023-05-06T06:45:24.150Z,100.00
2023-05-06T06:47:26.944Z,100.00
2023-05-06T06:49:29.905Z,100.00
2023-05-06T06:51:33.926Z,100.00
2023-05-06T06:53:36.782Z,100.00
2023-05-06T06:55:39.593Z,100.00
2023-05-06T06:57:42.276Z,100.00
2023-05-06T06:59:45.190Z,100.00
2023-05-06T07:01:47.934Z,100.00
2023-05-06T07:03:50.695Z,100.00
2023-05-06T07:05:53.363Z,100.00
2023-05-06T07:07:57.402Z,100.00
2023-05-06T07:10:00.287Z,100.00
2023-05-06T07:12:03.075Z,100.00
2023-05-06T07:14:05.771Z,100.00
2023-05-06T07:16:08.568Z,100.00
2023-05-06T07:18:11.298Z,100.00
2023-05-06T07:20:14.317Z,100.00
2023-05-06T07:22:17.103Z,100.00
2023-05-06T07:24:21.188Z,100.00
2023-05-06T07:26:23.924Z,100.00
2023-05-06T07:28:26.794Z,100.00
2023-05-06T07:30:29.533Z,100.00
2023-05-06T07:32:32.343Z,98.47
2023-05-06T07:34:36.082Z,100.00
2023-05-06T07:36:40.848Z,97.70
2023-05-06T07:38:43.648Z,96.82
2023-05-06T07:40:47.738Z,97.61
2023-05-06T07:42:50.410Z,89.09
2023-05-06T07:44:53.127Z,85.89
2023-05-06T07:46:55.969Z,83.03
2023-05-06T07:48:58.757Z,81.43
2023-05-06T07:51:01.917Z,81.11
2023-05-06T07:53:04.985Z,93.53
2023-05-06T07:55:10.087Z,98.21
2023-05-06T07:57:14.681Z,100.00
2023-05-06T07:59:17.415Z,100.00
2023-05-06T08:01:20.101Z,100.00
2023-05-06T08:03:22.954Z,100.00
2023-05-06T08:05:25.759Z,100.00
2023-05-06T08:07:28.658Z,100.00
2023-05-06T08:09:31.356Z,100.00
2023-05-06T08:11:34.116Z,100.00
2023-05-06T08:13:38.230Z,97.92
2023-05-06T08:15:41.322Z,92.53
2023-05-06T08:17:44.111Z,91.28
2023-05-06T08:19:46.941Z,92.10
2023-05-06T08:21:50.485Z,92.43
2023-05-06T08:23:53.678Z,94.15
2023-05-06T08:25:56.346Z,86.14
2023-05-06T08:27:59.151Z,87.01
2023-05-06T08:30:03.279Z,89.91
2023-05-06T08:32:06.553Z,92.14
2023-05-06T08:34:09.442Z,92.06
2023-05-06T08:36:12.151Z,88.79
2023-05-06T08:38:14.859Z,88.34
2023-05-06T08:40:20.538Z,93.06
2023-05-06T08:42:26.079Z,88.18
2023-05-06T08:44:28.925Z,86.94
2023-05-06T08:46:33.092Z,87.57
2023-05-06T08:48:37.372Z,82.93
2023-05-06T08:50:43.214Z,79.45
2023-05-06T08:52:46.279Z,74.76
2023-05-06T08:54:53.531Z,75.41
2023-05-06T08:56:58.548Z,73.26
2023-05-06T08:59:01.676Z,74.65
2023-05-06T09:01:05.428Z,74.46
2023-05-06T09:03:09.562Z,66.96
2023-05-06T09:05:12.805Z,73.07
2023-05-06T09:07:16.313Z,80.88
2023-05-06T09:09:19.154Z,80.85
2023-05-06T09:11:26.486Z,80.92
2023-05-06T09:13:29.230Z,77.92
2023-05-06T09:15:40.724Z,77.19
2023-05-06T09:17:43.525Z,72.98
2023-05-06T09:19:47.757Z,70.28
2023-05-06T09:21:51.932Z,71.56
2023-05-06T09:23:54.697Z,64.65
2023-05-06T09:25:58.130Z,62.77
2023-05-06T09:28:08.966Z,62.44
2023-05-06T09:30:13.439Z,59.75
2023-05-06T09:32:16.857Z,54.54
2023-05-06T09:34:21.135Z,55.48
2023-05-06T09:36:27.516Z,57.13
2023-05-06T09:38:30.248Z,58.69
2023-05-06T09:40:33.406Z,57.25
2023-05-06T09:42:36.213Z,61.67
2023-05-06T09:44:38.988Z,60.85
2023-05-06T09:46:42.222Z,63.99
2023-05-06T09:48:45.983Z,69.14
2023-05-06T09:50:49.956Z,61.23
2023-05-06T09:52:56.116Z,58.02
2023-05-06T09:54:59.355Z,55.04
2023-05-06T09:57:03.710Z,56.79
2023-05-06T09:59:07.714Z,53.49
2023-05-06T10:01:15.189Z,54.55
2023-05-06T10:03:23.301Z,52.30
2023-05-06T10:05:27.026Z,54.28
2023-05-06T10:07:30.683Z,54.64
2023-05-06T10:09:35.866Z,50.33
2023-05-06T10:11:38.567Z,49.88
2023-05-06T10:13:42.312Z,51.32
2023-05-06T10:15:47.226Z,54.08
2023-05-06T10:17:52.840Z,56.86
2023-05-06T10:19:59.842Z,55.64
2023-05-06T10:22:09.834Z,54.07
2023-05-06T10:24:14.087Z,51.92
2023-05-06T10:26:20.897Z,57.71
2023-05-06T10:28:30.496Z,55.51
2023-05-06T10:30:35.288Z,53.96
2023-05-06T10:32:42.351Z,57.78
2023-05-06T10:34:54.129Z,64.19
2023-05-06T10:37:00.150Z,60.73
2023-05-06T10:39:04.634Z,61.18
2023-05-06T10:41:09.142Z,63.10
2023-05-06T10:43:27.254Z,59.50
2023-05-06T10:45:30.034Z,57.39
2023-05-06T10:48:07.334Z,63.98
2023-05-06T10:50:23.779Z,60.34
2023-05-06T10:52:26.707Z,61.17
2023-05-06T10:54:29.428Z,57.91
2023-05-06T10:56:33.531Z,61.23
2023-05-06T10:58:38.516Z,58.15
2023-05-06T11:00:41.431Z,57.87
2023-05-06T11:02:47.404Z,60.99
2023-05-06T11:05:00.551Z,58.13
2023-05-06T11:07:10.776Z,58.40
2023-05-06T11:09:18.375Z,59.69
2023-05-06T11:11:50.904Z,60.04
2023-05-06T11:13:55.430Z,59.62
2023-05-06T11:16:00.212Z,57.27
2023-05-06T11:18:45.978Z,58.39
2023-05-06T11:20:48.685Z,58.93
2023-05-06T11:22:51.633Z,60.48
2023-05-06T11:24:54.357Z,58.96
2023-05-06T11:26:58.843Z,57.74
2023-05-06T11:29:04.036Z,58.25
2023-05-06T11:31:07.878Z,57.13
2023-05-06T11:33:18.486Z,57.25
2023-05-06T11:35:22.991Z,56.92
2023-05-06T11:37:27.057Z,55.06
2023-05-06T11:39:32.323Z,55.88
2023-05-06T11:41:40.860Z,54.09
2023-05-06T11:43:47.081Z,59.59
2023-05-06T11:45:50.678Z,57.40
2023-05-06T11:47:55.544Z,59.61
2023-05-06T11:49:59.012Z,60.93
2023-05-06T11:52:04.838Z,61.99
2023-05-06T11:54:09.485Z,63.97
2023-05-06T11:56:13.092Z,61.36
2023-05-06T11:58:16.458Z,59.91
2023-05-06T12:00:21.194Z,61.28
2023-05-06T12:02:24.083Z,62.03
2023-05-06T12:04:26.923Z,60.68
2023-05-06T12:06:35.130Z,59.81
2023-05-06T12:08:39.933Z,58.24
2023-05-06T12:10:43.126Z,59.34
2023-05-06T12:12:45.961Z,60.95
2023-05-06T12:14:50.412Z,61.86
2023-05-06T12:16:55.991Z,62.08
2023-05-06T12:18:59.163Z,62.76
2023-05-06T12:21:03.777Z,60.14
2023-05-06T12:23:07.283Z,61.60
2023-05-06T12:25:18.374Z,61.40
2023-05-06T12:27:34.657Z,62.06
2023-05-06T12:29:37.452Z,62.65
2023-05-06T12:31:40.524Z,61.13
2023-05-06T12:33:48.802Z,58.48
2023-05-06T12:35:54.697Z,56.82
2023-05-06T12:37:57.913Z,58.06
2023-05-06T12:40:01.251Z,55.45
2023-05-06T12:42:06.157Z,54.97
2023-05-06T12:44:34.481Z,55.52
2023-05-06T12:46:37.263Z,55.19
2023-05-06T12:48:40.596Z,55.18
2023-05-06T12:50:45.836Z,54.65
2023-05-06T12:52:48.721Z,54.90
2023-05-06T12:54:52.656Z,56.87
2023-05-06T12:56:55.596Z,56.46
2023-05-06T12:59:01.664Z,55.67
2023-05-06T13:01:04.979Z,55.51
2023-05-06T13:03:07.900Z,56.38
2023-05-06T13:05:10.927Z,56.39
2023-05-06T13:07:13.755Z,56.23
2023-05-06T13:09:16.898Z,54.10
2023-05-06T13:11:21.506Z,56.05
2023-05-06T13:13:24.436Z,55.81
2023-05-06T13:15:28.758Z,55.00
2023-05-06T13:17:31.678Z,57.56
2023-05-06T13:19:34.617Z,57.10
2023-05-06T13:21:37.619Z,56.97
2023-05-06T13:23:46.728Z,57.87
2023-05-06T13:26:03.655Z,57.74
2023-05-06T13:28:07.773Z,58.29
2023-05-06T13:30:11.157Z,56.94
2023-05-06T13:32:15.469Z,57.44
2023-05-06T13:34:18.221Z,57.15
2023-05-06T13:36:21.031Z,56.53
2023-05-06T13:38:24.003Z,57.33
2023-05-06T13:40:26.842Z,57.37
2023-05-06T13:42:29.741Z,57.64
2023-05-06T13:44:33.092Z,57.51
2023-05-06T13:46:36.011Z,57.79
2023-05-06T13:48:40.174Z,54.91
2023-05-06T13:50:43.328Z,55.27
2023-05-06T13:52:46.050Z,54.77
2023-05-06T13:54:48.908Z,55.75
2023-05-06T13:56:51.734Z,53.84
2023-05-06T13:58:54.681Z,55.90
2023-05-06T14:00:57.633Z,56.03
2023-05-06T14:03:00.758Z,56.19
2023-05-06T14:05:05.946Z,55.47
2023-05-06T14:07:08.828Z,55.04
2023-05-06T14:09:12.208Z,56.59
2023-05-06T14:11:15.056Z,55.41
2023-05-06T14:13:18.184Z,55.91
2023-05-06T14:15:21.240Z,55.04
2023-05-06T14:17:24.166Z,55.48
2023-05-06T14:19:27.191Z,55.92
2023-05-06T14:21:31.973Z,55.98
2023-05-06T14:23:34.916Z,56.00
2023-05-06T14:25:38.029Z,55.29
2023-05-06T14:27:40.829Z,54.56
2023-05-06T14:29:46.034Z,54.40
2023-05-06T14:31:48.848Z,54.44
2023-05-06T14:33:51.611Z,53.96
2023-05-06T14:35:54.390Z,55.15
2023-05-06T14:37:58.654Z,55.50
2023-05-06T14:40:01.496Z,54.65
2023-05-06T14:42:04.419Z,55.03
2023-05-06T14:44:07.196Z,53.65
2023-05-06T14:46:11.270Z,53.52
2023-05-06T14:48:14.158Z,54.61
2023-05-06T14:50:16.985Z,54.00
2023-05-06T14:52:20.162Z,54.01
2023-05-06T14:54:26.733Z,54.37
2023-05-06T14:56:29.591Z,54.23
2023-05-06T14:58:32.388Z,55.75
2023-05-06T15:00:35.297Z,54.44
2023-05-06T15:02:40.566Z,55.01
2023-05-06T15:04:43.475Z,54.02
2023-05-06T15:06:46.219Z,54.89
2023-05-06T15:08:49.227Z,53.85
2023-05-06T15:10:53.442Z,53.93
2023-05-06T15:12:56.285Z,54.02
2023-05-06T15:14:59.053Z,53.52
2023-05-06T15:17:01.848Z,53.11
2023-05-06T15:19:04.729Z,54.61
2023-05-06T15:21:07.657Z,53.74
2023-05-06T15:23:10.643Z,53.94
2023-05-06T15:25:22.407Z,52.60
2023-05-06T15:27:30.794Z,54.15
2023-05-06T15:29:33.566Z,53.26
2023-05-06T15:31:39.101Z,53.41
2023-05-06T15:33:42.003Z,53.70
2023-05-06T15:35:44.945Z,53.22
2023-05-06T15:37:47.739Z,53.75
2023-05-06T15:39:50.654Z,53.37
2023-05-06T15:41:53.515Z,53.08
2023-05-06T15:43:59.087Z,53.43
2023-05-06T15:46:01.930Z,53.54
2023-05-06T15:48:04.928Z,54.15
2023-05-06T15:50:20.140Z,52.67
2023-05-06T15:52:31.552Z,53.60
2023-05-06T15:54:37.611Z,53.88
2023-05-06T15:56:41.561Z,54.00
2023-05-06T15:58:45.010Z,53.24
2023-05-06T16:00:49.227Z,53.29
2023-05-06T16:02:52.174Z,53.01
2023-05-06T16:04:55.368Z,52.23
2023-05-06T16:06:58.740Z,52.76
2023-05-06T16:09:01.491Z,52.39
2023-05-06T16:11:05.384Z,51.44
2023-05-06T16:13:08.424Z,51.96
2023-05-06T16:15:11.853Z,51.68
2023-05-06T16:17:16.750Z,52.37
2023-05-06T16:19:19.525Z,52.26
2023-05-06T16:21:22.331Z,51.60
2023-05-06T16:23:25.692Z,50.40
2023-05-06T16:25:28.410Z,51.44
2023-05-06T16:27:31.204Z,51.19
2023-05-06T16:29:34.028Z,50.90
2023-05-06T16:31:38.003Z,50.50
2023-05-06T16:33:42.358Z,50.93
2023-05-06T16:35:46.434Z,51.42
2023-05-06T16:37:49.237Z,51.30
2023-05-06T16:39:52.076Z,51.02
2023-05-06T16:41:55.236Z,50.75
2023-05-06T16:43:58.036Z,50.92
2023-05-06T16:46:02.313Z,50.60
2023-05-06T16:48:05.262Z,50.73
2023-05-06T16:50:10.168Z,51.41
2023-05-06T16:52:13.166Z,51.34
2023-05-06T16:54:16.026Z,51.75
2023-05-06T16:56:18.853Z,51.87
2023-05-06T16:58:21.935Z,51.81
2023-05-06T17:00:25.874Z,50.68
2023-05-06T17:02:28.877Z,51.08
2023-05-06T17:04:31.665Z,52.26
2023-05-06T17:06:35.942Z,52.11
2023-05-06T17:08:38.745Z,52.09
2023-05-06T17:10:45.972Z,52.22
2023-05-06T17:12:48.957Z,52.31
2023-05-06T17:14:51.768Z,51.99
2023-05-06T17:16:54.573Z,53.15
2023-05-06T17:18:57.504Z,52.81
2023-05-06T17:21:00.296Z,52.39
2023-05-06T17:23:04.504Z,51.68
2023-05-06T17:25:08.179Z,52.33
2023-05-06T17:27:10.973Z,51.94
2023-05-06T17:29:13.681Z,52.24
2023-05-06T17:31:16.491Z,51.80
2023-05-06T17:33:19.344Z,52.10
2023-05-06T17:35:22.269Z,52.05
2023-05-06T17:37:25.122Z,51.64
2023-05-06T17:39:29.263Z,52.03
2023-05-06T17:41:32.126Z,50.96
2023-05-06T17:43:35.108Z,52.19
2023-05-06T17:45:37.971Z,51.94
2023-05-06T17:47:40.901Z,51.41
2023-05-06T17:49:43.878Z,52.10
2023-05-06T17:51:46.712Z,52.33
2023-05-06T17:53:49.471Z,52.86
2023-05-06T17:55:53.613Z,52.68
2023-05-06T17:57:56.364Z,53.11
2023-05-06T17:59:59.177Z,52.84
2023-05-06T18:02:01.999Z,53.89
2023-05-06T18:04:04.927Z,53.67
2023-05-06T18:06:07.989Z,54.29
2023-05-06T18:08:10.726Z,54.42
2023-05-06T18:10:14.035Z,54.20
2023-05-06T18:12:18.305Z,54.45
2023-05-06T18:14:21.115Z,55.71
2023-05-06T18:16:24.005Z,56.27
2023-05-06T18:18:26.916Z,56.36
2023-05-06T18:20:29.665Z,56.86
2023-05-06T18:22:32.502Z,59.01
2023-05-06T18:24:35.909Z,57.90
2023-05-06T18:26:44.992Z,58.77
2023-05-06T18:28:50.043Z,60.51
2023-05-06T18:30:52.902Z,59.91
2023-05-06T18:32:56.752Z,61.36
2023-05-06T18:34:59.947Z,62.98
2023-05-06T18:37:02.725Z,63.33
2023-05-06T18:39:05.885Z,62.76
2023-05-06T18:41:09.093Z,62.87
2023-05-06T18:43:11.896Z,63.72
2023-05-06T18:45:16.359Z,65.28
2023-05-06T18:47:19.721Z,63.37
2023-05-06T18:49:23.198Z,68.07
2023-05-06T18:51:26.281Z,66.95
2023-05-06T18:53:29.088Z,66.65
2023-05-06T18:55:31.867Z,68.82
2023-05-06T18:57:34.665Z,71.59
2023-05-06T18:59:37.524Z,71.87
2023-05-06T19:01:41.661Z,71.54
2023-05-06T19:03:44.590Z,69.89
2023-05-06T19:05:47.457Z,70.56
2023-05-06T19:07:50.266Z,73.73
2023-05-06T19:09:53.088Z,75.90
2023-05-06T19:11:55.839Z,76.55
2023-05-06T19:13:58.630Z,76.85
2023-05-06T19:16:01.397Z,70.01
2023-05-06T19:18:05.900Z,68.65
2023-05-06T19:20:10.583Z,67.29
2023-05-06T19:22:13.782Z,71.69
2023-05-06T19:24:16.566Z,71.06
2023-05-06T19:26:19.386Z,68.31
2023-05-06T19:28:22.223Z,69.68
2023-05-06T19:30:25.102Z,75.20
2023-05-06T19:32:27.959Z,77.07
2023-05-06T19:34:32.261Z,76.68
2023-05-06T19:36:35.202Z,74.87
2023-05-06T19:38:38.050Z,76.22
2023-05-06T19:40:40.859Z,79.01
2023-05-06T19:42:43.647Z,76.78
2023-05-06T19:44:48.284Z,73.02
2023-05-06T19:46:54.377Z,71.11
2023-05-06T19:48:58.142Z,72.22
2023-05-06T19:51:02.256Z,74.60
2023-05-06T19:53:05.297Z,71.10
2023-05-06T19:55:09.333Z,74.78
2023-05-06T19:57:12.298Z,72.74
2023-05-06T19:59:15.058Z,69.72
2023-05-06T20:01:21.759Z,71.12
2023-05-06T20:03:25.355Z,70.12
2023-05-06T20:05:30.916Z,70.15
2023-05-06T20:07:35.115Z,69.71
2023-05-06T20:09:38.150Z,68.96
2023-05-06T20:11:41.129Z,70.52
2023-05-06T20:13:43.886Z,69.88
2023-05-06T20:15:47.530Z,71.68
2023-05-06T20:17:50.468Z,69.45
2023-05-06T20:19:54.378Z,70.72
2023-05-06T20:21:57.709Z,70.15
2023-05-06T20:24:01.957Z,70.85
2023-05-06T20:26:04.719Z,71.07
2023-05-06T20:28:07.645Z,70.40
2023-05-06T20:30:11.080Z,70.39
2023-05-06T20:32:13.933Z,71.42
2023-05-06T20:34:16.840Z,70.41
2023-05-06T20:36:19.622Z,70.27
2023-05-06T20:38:22.460Z,70.32
2023-05-06T20:40:26.755Z,70.28
2023-05-06T20:42:29.672Z,72.93
2023-05-06T20:44:32.583Z,71.12
2023-05-06T20:46:35.441Z,70.89
2023-05-06T20:48:38.170Z,71.30
2023-05-06T20:50:41.060Z,74.39
2023-05-06T20:52:45.605Z,72.07
2023-05-06T20:54:48.713Z,71.33
2023-05-06T20:56:52.966Z,72.38
2023-05-06T20:58:56.713Z,76.04
2023-05-06T21:00:59.759Z,74.21
2023-05-06T21:03:02.664Z,77.47
2023-05-06T21:05:06.314Z,76.37
2023-05-06T21:07:09.619Z,74.68
2023-05-06T21:09:12.447Z,77.22
2023-05-06T21:11:15.378Z,75.43
2023-05-06T21:13:19.573Z,76.05
2023-05-06T21:15:22.474Z,74.90
2023-05-06T21:17:25.441Z,75.58
2023-05-06T21:19:28.214Z,75.97
2023-05-06T21:21:32.591Z,75.70
2023-05-06T21:23:35.848Z,75.98
2023-05-06T21:25:38.669Z,76.68
2023-05-06T21:27:41.438Z,76.73
2023-05-06T21:29:45.756Z,77.07
2023-05-06T21:31:48.692Z,78.42
2023-05-06T21:33:54.722Z,77.69
2023-05-06T21:35:57.540Z,78.05
2023-05-06T21:38:00.336Z,77.83
2023-05-06T21:40:04.440Z,77.84
2023-05-06T21:42:07.333Z,78.69
2023-05-06T21:44:10.395Z,78.83
2023-05-06T21:46:14.574Z,79.17
2023-05-06T21:48:17.403Z,79.26
2023-05-06T21:50:20.312Z,79.27
2023-05-06T21:52:23.156Z,79.95
2023-05-06T21:54:26.353Z,80.47
2023-05-06T21:56:29.589Z,80.29
2023-05-06T21:58:32.320Z,80.95
2023-05-06T22:00:35.244Z,81.10
2023-05-06T22:02:40.009Z,80.81
2023-05-06T22:04:43.088Z,81.35
2023-05-06T22:06:45.854Z,81.86
2023-05-06T22:08:48.599Z,81.89
2023-05-06T22:10:51.470Z,83.74
2023-05-06T22:12:54.350Z,83.51
2023-05-06T22:14:57.538Z,83.28
2023-05-06T22:17:01.615Z,83.58
2023-05-06T22:19:06.789Z,83.52
2023-05-06T22:21:09.983Z,86.50
2023-05-06T22:23:12.799Z,87.82
2023-05-06T22:25:15.587Z,88.14
2023-05-06T22:27:18.321Z,89.17
2023-05-06T22:29:21.153Z,86.92
2023-05-06T22:31:24.688Z,91.42
2023-05-06T22:33:27.938Z,91.31
2023-05-06T22:35:32.106Z,92.29
2023-05-06T22:37:34.885Z,90.45
2023-05-06T22:39:37.742Z,88.98
2023-05-06T22:41:40.584Z,89.68
2023-05-06T22:43:43.356Z,93.93
2023-05-06T22:45:46.239Z,93.14
2023-05-06T22:47:49.029Z,95.07
2023-05-06T22:49:51.809Z,97.86
2023-05-06T22:51:56.099Z,97.17
2023-05-06T22:53:58.857Z,98.84
2023-05-06T22:56:01.760Z,99.11
2023-05-06T22:58:04.537Z,98.80
2023-05-06T23:00:08.828Z,100.00
2023-05-06T23:02:11.741Z,99.85
2023-05-06T23:04:14.572Z,100.00
2023-05-06T23:06:18.120Z,100.00
2023-05-06T23:08:22.272Z,100.00
2023-05-06T23:10:25.131Z,100.00
2023-05-06T23:12:28.743Z,100.00
2023-05-06T23:14:31.476Z,99.38
2023-05-06T23:16:34.327Z,98.80
2023-05-06T23:18:37.297Z,100.00
2023-05-06T23:20:40.090Z,100.00
2023-05-06T23:22:42.938Z,100.00
2023-05-06T23:24:47.105Z,100.00
2023-05-06T23:26:49.900Z,100.00
2023-05-06T23:28:52.664Z,100.00
2023-05-06T23:30:55.510Z,100.00
2023-05-06T23:32:58.452Z,100.00
2023-05-06T23:35:02.600Z,100.00
2023-05-06T23:37:05.388Z,100.00
2023-05-06T23:39:11.504Z,100.00
2023-05-06T23:41:15.669Z,100.00
2023-05-06T23:43:18.537Z,100.00
2023-05-06T23:45:21.426Z,100.00
2023-05-06T23:47:25.397Z,100.00
2023-05-06T23:49:28.308Z,100.00
2023-05-06T23:51:31.714Z,100.00
2023-05-06T23:53:36.042Z,100.00
2023-05-06T23:55:39.294Z,99.80
2023-05-06T23:57:43.468Z,99.38
2023-05-06T23:59:46.400Z,100.00
